sensor_id;sensor_type;location;lat;lon;timestamp;P1;durP1;ratioP1;P2;durP2;ratioP2
34481;SDS011;20720;48.886;9.388;2022-10-31T00:01:13;7.20;;;3.60;;
34481;SDS011;20720;48.886;9.388;2022-10-31T00:03:41;9.40;;;4.23;;
34481;SDS011;20720;48.886;9.388;2022-10-31T00:06:06;8.13;;;4.40;;
34481;SDS011;20720;48.886;9.388;2022-10-31T00:08:31;9.13;;;4.05;;
34481;SDS011;20720;48.886;9.388;2022-10-31T00:10:57;9.63;;;4.05;;
34481;SDS011;20720;48.886;9.388;2022-10-31T00:13:22;6.20;;;3.58;;
34481;SDS011;20720;48.886;9.388;2022-10-31T00:15:47;15.77;;;4.65;;
34481;SDS011;20720;48.886;9.388;2022-10-31T00:18:13;9.30;;;4.43;;
34481;SDS011;20720;48.886;9.388;2022-10-31T00:20:39;5.35;;;3.50;;
34481;SDS011;20720;48.886;9.388;2022-10-31T00:23:04;7.45;;;4.10;;
34481;SDS011;20720;48.886;9.388;2022-10-31T00:25:34;9.55;;;3.97;;
34481;SDS011;20720;48.886;9.388;2022-10-31T00:28:02;9.30;;;4.22;;
34481;SDS011;20720;48.886;9.388;2022-10-31T00:30:31;10.05;;;4.05;;
34481;SDS011;20720;48.886;9.388;2022-10-31T00:32:57;8.88;;;4.10;;
34481;SDS011;20720;48.886;9.388;2022-10-31T00:35:22;10.68;;;4.32;;
34481;SDS011;20720;48.886;9.388;2022-10-31T00:37:48;8.93;;;4.60;;
34481;SDS011;20720;48.886;9.388;2022-10-31T00:40:13;8.82;;;3.97;;
34481;SDS011;20720;48.886;9.388;2022-10-31T00:42:39;7.53;;;4.03;;
34481;SDS011;20720;48.886;9.388;2022-10-31T00:45:06;8.15;;;3.60;;
34481;SDS011;20720;48.886;9.388;2022-10-31T00:47:35;8.32;;;3.70;;
34481;SDS011;20720;48.886;9.388;2022-10-31T00:50:00;10.32;;;4.03;;
34481;SDS011;20720;48.886;9.388;2022-10-31T00:52:25;7.28;;;3.83;;
34481;SDS011;20720;48.886;9.388;2022-10-31T00:54:50;7.68;;;3.72;;
34481;SDS011;20720;48.886;9.388;2022-10-31T00:57:16;7.60;;;4.00;;
34481;SDS011;20720;48.886;9.388;2022-10-31T00:59:41;10.27;;;4.50;;
34481;SDS011;20720;48.886;9.388;2022-10-31T01:02:06;8.95;;;3.80;;
34481;SDS011;20720;48.886;9.388;2022-10-31T01:04:32;8.65;;;3.70;;
34481;SDS011;20720;48.886;9.388;2022-10-31T01:06:57;7.18;;;3.47;;
34481;SDS011;20720;48.886;9.388;2022-10-31T01:09:22;11.25;;;3.83;;
34481;SDS011;20720;48.886;9.388;2022-10-31T01:11:47;6.35;;;3.85;;
34481;SDS011;20720;48.886;9.388;2022-10-31T01:14:13;11.52;;;4.25;;
34481;SDS011;20720;48.886;9.388;2022-10-31T01:16:38;11.70;;;4.50;;
34481;SDS011;20720;48.886;9.388;2022-10-31T01:19:03;10.30;;;4.05;;
34481;SDS011;20720;48.886;9.388;2022-10-31T01:21:29;9.57;;;3.67;;
34481;SDS011;20720;48.886;9.388;2022-10-31T01:23:54;7.97;;;3.80;;
34481;SDS011;20720;48.886;9.388;2022-10-31T01:26:21;14.80;;;4.63;;
34481;SDS011;20720;48.886;9.388;2022-10-31T01:28:52;8.63;;;3.72;;
34481;SDS011;20720;48.886;9.388;2022-10-31T01:31:20;10.10;;;4.35;;
34481;SDS011;20720;48.886;9.388;2022-10-31T01:33:47;7.45;;;4.03;;
34481;SDS011;20720;48.886;9.388;2022-10-31T01:38:38;6.38;;;3.55;;
34481;SDS011;20720;48.886;9.388;2022-10-31T01:41:03;9.88;;;3.70;;
34481;SDS011;20720;48.886;9.388;2022-10-31T01:46:13;8.18;;;3.90;;
34481;SDS011;20720;48.886;9.388;2022-10-31T01:48:41;8.88;;;4.00;;
34481;SDS011;20720;48.886;9.388;2022-10-31T01:51:06;11.23;;;3.85;;
34481;SDS011;20720;48.886;9.388;2022-10-31T01:53:36;9.88;;;4.15;;
34481;SDS011;20720;48.886;9.388;2022-10-31T01:56:01;7.60;;;4.00;;
34481;SDS011;20720;48.886;9.388;2022-10-31T01:58:28;8.32;;;4.65;;
34481;SDS011;20720;48.886;9.388;2022-10-31T02:00:56;9.13;;;4.25;;
34481;SDS011;20720;48.886;9.388;2022-10-31T02:03:24;10.68;;;4.10;;
34481;SDS011;20720;48.886;9.388;2022-10-31T02:05:50;9.38;;;4.30;;
34481;SDS011;20720;48.886;9.388;2022-10-31T02:08:29;7.80;;;4.20;;
34481;SDS011;20720;48.886;9.388;2022-10-31T02:10:58;7.15;;;3.88;;
34481;SDS011;20720;48.886;9.388;2022-10-31T02:13:25;10.48;;;4.35;;
34481;SDS011;20720;48.886;9.388;2022-10-31T02:15:53;10.35;;;4.40;;
34481;SDS011;20720;48.886;9.388;2022-10-31T02:18:20;17.70;;;4.60;;
34481;SDS011;20720;48.886;9.388;2022-10-31T02:20:54;9.68;;;4.47;;
34481;SDS011;20720;48.886;9.388;2022-10-31T02:35:15;7.70;;;4.00;;
34481;SDS011;20720;48.886;9.388;2022-10-31T02:38:09;9.40;;;4.05;;
34481;SDS011;20720;48.886;9.388;2022-10-31T02:41:32;7.57;;;4.18;;
34481;SDS011;20720;48.886;9.388;2022-10-31T02:46:44;8.07;;;3.92;;
34481;SDS011;20720;48.886;9.388;2022-10-31T02:49:17;8.38;;;4.60;;
34481;SDS011;20720;48.886;9.388;2022-10-31T02:51:48;6.82;;;4.30;;
34481;SDS011;20720;48.886;9.388;2022-10-31T02:54:22;7.80;;;4.22;;
34481;SDS011;20720;48.886;9.388;2022-10-31T02:56:49;7.53;;;4.13;;
34481;SDS011;20720;48.886;9.388;2022-10-31T02:59:19;10.35;;;3.97;;
34481;SDS011;20720;48.886;9.388;2022-10-31T03:01:49;6.38;;;3.58;;
34481;SDS011;20720;48.886;9.388;2022-10-31T03:04:49;11.63;;;3.90;;
34481;SDS011;20720;48.886;9.388;2022-10-31T03:13:20;5.30;;;3.05;;
34481;SDS011;20720;48.886;9.388;2022-10-31T03:16:03;7.53;;;3.70;;
34481;SDS011;20720;48.886;9.388;2022-10-31T03:18:37;7.47;;;3.67;;
34481;SDS011;20720;48.886;9.388;2022-10-31T03:21:07;6.25;;;3.10;;
34481;SDS011;20720;48.886;9.388;2022-10-31T03:23:38;8.48;;;3.50;;
34481;SDS011;20720;48.886;9.388;2022-10-31T03:26:05;8.35;;;3.70;;
34481;SDS011;20720;48.886;9.388;2022-10-31T03:28:37;11.98;;;3.25;;
34481;SDS011;20720;48.886;9.388;2022-10-31T03:31:08;6.15;;;3.30;;
34481;SDS011;20720;48.886;9.388;2022-10-31T03:33:36;8.00;;;3.63;;
34481;SDS011;20720;48.886;9.388;2022-10-31T03:36:03;6.13;;;3.42;;
34481;SDS011;20720;48.886;9.388;2022-10-31T03:38:32;6.72;;;3.83;;
34481;SDS011;20720;48.886;9.388;2022-10-31T03:41:00;6.82;;;3.35;;
34481;SDS011;20720;48.886;9.388;2022-10-31T03:43:32;6.47;;;3.17;;
34481;SDS011;20720;48.886;9.388;2022-10-31T03:46:01;13.13;;;3.90;;
34481;SDS011;20720;48.886;9.388;2022-10-31T03:48:27;7.88;;;3.35;;
34481;SDS011;20720;48.886;9.388;2022-10-31T03:51:03;10.20;;;3.83;;
34481;SDS011;20720;48.886;9.388;2022-10-31T03:53:53;8.68;;;3.47;;
34481;SDS011;20720;48.886;9.388;2022-10-31T04:01:47;14.55;;;4.72;;
34481;SDS011;20720;48.886;9.388;2022-10-31T04:04:16;7.45;;;3.83;;
34481;SDS011;20720;48.886;9.388;2022-10-31T04:06:44;9.82;;;4.68;;
34481;SDS011;20720;48.886;9.388;2022-10-31T04:09:12;10.07;;;4.28;;
34481;SDS011;20720;48.886;9.388;2022-10-31T04:11:45;11.63;;;4.15;;
34481;SDS011;20720;48.886;9.388;2022-10-31T04:14:13;14.57;;;4.05;;
34481;SDS011;20720;48.886;9.388;2022-10-31T04:16:39;7.55;;;3.53;;
34481;SDS011;20720;48.886;9.388;2022-10-31T04:19:08;8.70;;;4.13;;
34481;SDS011;20720;48.886;9.388;2022-10-31T04:21:33;10.88;;;4.47;;
34481;SDS011;20720;48.886;9.388;2022-10-31T04:23:59;7.00;;;3.83;;
34481;SDS011;20720;48.886;9.388;2022-10-31T04:26:24;10.73;;;3.72;;
34481;SDS011;20720;48.886;9.388;2022-10-31T04:28:50;7.93;;;3.70;;
34481;SDS011;20720;48.886;9.388;2022-10-31T04:31:15;12.07;;;3.70;;
34481;SDS011;20720;48.886;9.388;2022-10-31T04:33:41;5.93;;;3.20;;
34481;SDS011;20720;48.886;9.388;2022-10-31T04:36:06;7.72;;;3.60;;
34481;SDS011;20720;48.886;9.388;2022-10-31T04:38:31;5.38;;;3.15;;
34481;SDS011;20720;48.886;9.388;2022-10-31T04:40:57;6.57;;;3.40;;
34481;SDS011;20720;48.886;9.388;2022-10-31T04:43:22;7.68;;;3.50;;
34481;SDS011;20720;48.886;9.388;2022-10-31T04:45:47;6.63;;;3.60;;
34481;SDS011;20720;48.886;9.388;2022-10-31T04:48:13;5.97;;;3.63;;
34481;SDS011;20720;48.886;9.388;2022-10-31T04:50:38;7.00;;;3.53;;
34481;SDS011;20720;48.886;9.388;2022-10-31T04:53:04;7.15;;;3.20;;
34481;SDS011;20720;48.886;9.388;2022-10-31T04:55:29;6.68;;;3.33;;
34481;SDS011;20720;48.886;9.388;2022-10-31T04:57:54;8.48;;;3.83;;
34481;SDS011;20720;48.886;9.388;2022-10-31T05:00:21;10.32;;;3.95;;
34481;SDS011;20720;48.886;9.388;2022-10-31T05:02:47;4.35;;;2.90;;
34481;SDS011;20720;48.886;9.388;2022-10-31T05:05:15;5.93;;;3.40;;
34481;SDS011;20720;48.886;9.388;2022-10-31T05:07:42;5.90;;;3.67;;
34481;SDS011;20720;48.886;9.388;2022-10-31T05:10:09;7.93;;;3.33;;
34481;SDS011;20720;48.886;9.388;2022-10-31T05:12:36;7.90;;;3.40;;
34481;SDS011;20720;48.886;9.388;2022-10-31T05:15:01;6.07;;;3.10;;
34481;SDS011;20720;48.886;9.388;2022-10-31T05:17:27;10.05;;;3.65;;
34481;SDS011;20720;48.886;9.388;2022-10-31T05:19:52;5.75;;;3.03;;
34481;SDS011;20720;48.886;9.388;2022-10-31T05:22:18;5.10;;;3.22;;
34481;SDS011;20720;48.886;9.388;2022-10-31T05:24:43;7.10;;;3.47;;
34481;SDS011;20720;48.886;9.388;2022-10-31T05:27:08;7.40;;;3.88;;
34481;SDS011;20720;48.886;9.388;2022-10-31T05:29:33;7.78;;;3.40;;
34481;SDS011;20720;48.886;9.388;2022-10-31T05:31:59;5.47;;;3.10;;
34481;SDS011;20720;48.886;9.388;2022-10-31T05:34:24;5.28;;;3.33;;
34481;SDS011;20720;48.886;9.388;2022-10-31T05:36:49;5.18;;;3.22;;
34481;SDS011;20720;48.886;9.388;2022-10-31T05:39:15;6.80;;;3.15;;
34481;SDS011;20720;48.886;9.388;2022-10-31T05:41:40;7.18;;;3.03;;
34481;SDS011;20720;48.886;9.388;2022-10-31T05:44:05;5.57;;;3.33;;
34481;SDS011;20720;48.886;9.388;2022-10-31T05:46:31;4.70;;;2.83;;
34481;SDS011;20720;48.886;9.388;2022-10-31T05:48:56;5.97;;;3.17;;
34481;SDS011;20720;48.886;9.388;2022-10-31T05:51:21;5.03;;;3.03;;
34481;SDS011;20720;48.886;9.388;2022-10-31T05:53:46;5.93;;;3.42;;
34481;SDS011;20720;48.886;9.388;2022-10-31T05:56:12;5.45;;;3.38;;
34481;SDS011;20720;48.886;9.388;2022-10-31T05:58:38;6.68;;;4.10;;
34481;SDS011;20720;48.886;9.388;2022-10-31T06:01:03;6.13;;;3.60;;
34481;SDS011;20720;48.886;9.388;2022-10-31T06:03:28;8.00;;;3.80;;
34481;SDS011;20720;48.886;9.388;2022-10-31T06:05:53;9.82;;;3.63;;
34481;SDS011;20720;48.886;9.388;2022-10-31T06:08:19;6.45;;;3.38;;
34481;SDS011;20720;48.886;9.388;2022-10-31T06:10:44;8.65;;;3.90;;
34481;SDS011;20720;48.886;9.388;2022-10-31T06:13:09;8.95;;;3.80;;
34481;SDS011;20720;48.886;9.388;2022-10-31T06:15:34;7.50;;;3.42;;
34481;SDS011;20720;48.886;9.388;2022-10-31T06:18:01;9.23;;;3.50;;
34481;SDS011;20720;48.886;9.388;2022-10-31T06:20:27;6.38;;;3.60;;
34481;SDS011;20720;48.886;9.388;2022-10-31T06:22:53;6.45;;;3.92;;
34481;SDS011;20720;48.886;9.388;2022-10-31T06:25:18;8.32;;;3.38;;
34481;SDS011;20720;48.886;9.388;2022-10-31T06:27:43;6.88;;;3.70;;
34481;SDS011;20720;48.886;9.388;2022-10-31T06:30:09;8.05;;;4.00;;
34481;SDS011;20720;48.886;9.388;2022-10-31T06:32:34;8.23;;;4.32;;
34481;SDS011;20720;48.886;9.388;2022-10-31T06:35:00;7.10;;;3.42;;
34481;SDS011;20720;48.886;9.388;2022-10-31T06:37:25;9.05;;;4.30;;
34481;SDS011;20720;48.886;9.388;2022-10-31T06:39:50;8.88;;;3.83;;
34481;SDS011;20720;48.886;9.388;2022-10-31T06:42:16;6.53;;;3.40;;
34481;SDS011;20720;48.886;9.388;2022-10-31T06:44:41;9.75;;;3.80;;
34481;SDS011;20720;48.886;9.388;2022-10-31T06:47:07;9.68;;;4.32;;
34481;SDS011;20720;48.886;9.388;2022-10-31T06:49:32;8.98;;;4.05;;
34481;SDS011;20720;48.886;9.388;2022-10-31T06:51:58;6.45;;;3.65;;
34481;SDS011;20720;48.886;9.388;2022-10-31T06:54:23;5.35;;;3.00;;
34481;SDS011;20720;48.886;9.388;2022-10-31T06:56:48;6.70;;;3.55;;
34481;SDS011;20720;48.886;9.388;2022-10-31T06:59:14;5.50;;;3.00;;
34481;SDS011;20720;48.886;9.388;2022-10-31T07:01:40;7.43;;;3.30;;
34481;SDS011;20720;48.886;9.388;2022-10-31T07:04:05;5.60;;;2.97;;
34481;SDS011;20720;48.886;9.388;2022-10-31T07:06:30;5.57;;;2.85;;
34481;SDS011;20720;48.886;9.388;2022-10-31T07:08:56;5.95;;;2.92;;
34481;SDS011;20720;48.886;9.388;2022-10-31T07:11:21;5.85;;;2.67;;
34481;SDS011;20720;48.886;9.388;2022-10-31T07:13:46;6.57;;;3.05;;
34481;SDS011;20720;48.886;9.388;2022-10-31T07:16:11;9.90;;;2.78;;
34481;SDS011;20720;48.886;9.388;2022-10-31T07:18:38;5.10;;;2.88;;
34481;SDS011;20720;48.886;9.388;2022-10-31T07:21:04;7.05;;;2.65;;
34481;SDS011;20720;48.886;9.388;2022-10-31T07:23:29;6.65;;;2.97;;
34481;SDS011;20720;48.886;9.388;2022-10-31T07:25:58;6.82;;;3.28;;
34481;SDS011;20720;48.886;9.388;2022-10-31T07:28:24;7.97;;;3.05;;
34481;SDS011;20720;48.886;9.388;2022-10-31T07:30:51;6.75;;;3.05;;
34481;SDS011;20720;48.886;9.388;2022-10-31T07:33:17;7.10;;;3.05;;
34481;SDS011;20720;48.886;9.388;2022-10-31T07:35:42;4.32;;;2.60;;
34481;SDS011;20720;48.886;9.388;2022-10-31T07:38:09;6.72;;;3.35;;
34481;SDS011;20720;48.886;9.388;2022-10-31T07:40:36;5.30;;;2.92;;
34481;SDS011;20720;48.886;9.388;2022-10-31T07:43:01;7.25;;;3.33;;
34481;SDS011;20720;48.886;9.388;2022-10-31T07:45:27;6.05;;;3.20;;
34481;SDS011;20720;48.886;9.388;2022-10-31T07:47:52;6.30;;;3.40;;
34481;SDS011;20720;48.886;9.388;2022-10-31T07:50:19;4.13;;;2.90;;
34481;SDS011;20720;48.886;9.388;2022-10-31T07:52:47;5.80;;;2.67;;
34481;SDS011;20720;48.886;9.388;2022-10-31T07:55:13;10.73;;;3.47;;
34481;SDS011;20720;48.886;9.388;2022-10-31T07:57:39;4.47;;;2.75;;
34481;SDS011;20720;48.886;9.388;2022-10-31T08:00:05;6.22;;;2.90;;
34481;SDS011;20720;48.886;9.388;2022-10-31T08:02:32;6.18;;;2.22;;
34481;SDS011;20720;48.886;9.388;2022-10-31T08:04:57;6.03;;;3.03;;
34481;SDS011;20720;48.886;9.388;2022-10-31T08:07:24;6.85;;;2.92;;
34481;SDS011;20720;48.886;9.388;2022-10-31T08:09:49;6.70;;;2.60;;
34481;SDS011;20720;48.886;9.388;2022-10-31T08:12:15;5.70;;;2.63;;
34481;SDS011;20720;48.886;9.388;2022-10-31T08:14:40;8.15;;;3.50;;
34481;SDS011;20720;48.886;9.388;2022-10-31T08:17:05;5.85;;;3.15;;
34481;SDS011;20720;48.886;9.388;2022-10-31T08:19:31;5.97;;;2.85;;
34481;SDS011;20720;48.886;9.388;2022-10-31T08:21:56;7.22;;;3.10;;
34481;SDS011;20720;48.886;9.388;2022-10-31T08:24:21;6.63;;;2.97;;
34481;SDS011;20720;48.886;9.388;2022-10-31T08:26:47;7.20;;;2.83;;
34481;SDS011;20720;48.886;9.388;2022-10-31T08:29:12;6.32;;;3.25;;
34481;SDS011;20720;48.886;9.388;2022-10-31T08:31:39;7.55;;;3.08;;
34481;SDS011;20720;48.886;9.388;2022-10-31T08:34:05;8.02;;;3.25;;
34481;SDS011;20720;48.886;9.388;2022-10-31T08:36:30;8.07;;;3.40;;
34481;SDS011;20720;48.886;9.388;2022-10-31T08:38:55;7.25;;;3.15;;
34481;SDS011;20720;48.886;9.388;2022-10-31T08:41:21;6.55;;;2.55;;
34481;SDS011;20720;48.886;9.388;2022-10-31T08:43:46;8.27;;;3.03;;
34481;SDS011;20720;48.886;9.388;2022-10-31T08:46:12;6.53;;;2.85;;
34481;SDS011;20720;48.886;9.388;2022-10-31T08:48:38;10.65;;;3.03;;
34481;SDS011;20720;48.886;9.388;2022-10-31T08:51:03;7.68;;;3.30;;
34481;SDS011;20720;48.886;9.388;2022-10-31T08:53:29;9.52;;;3.45;;
34481;SDS011;20720;48.886;9.388;2022-10-31T08:55:54;6.07;;;3.13;;
34481;SDS011;20720;48.886;9.388;2022-10-31T08:58:21;6.60;;;3.35;;
34481;SDS011;20720;48.886;9.388;2022-10-31T09:00:48;9.48;;;3.33;;
34481;SDS011;20720;48.886;9.388;2022-10-31T09:03:19;5.70;;;3.10;;
34481;SDS011;20720;48.886;9.388;2022-10-31T09:05:48;6.05;;;2.88;;
34481;SDS011;20720;48.886;9.388;2022-10-31T09:08:13;7.20;;;3.10;;
34481;SDS011;20720;48.886;9.388;2022-10-31T09:10:39;9.07;;;3.13;;
34481;SDS011;20720;48.886;9.388;2022-10-31T09:13:09;6.85;;;3.00;;
34481;SDS011;20720;48.886;9.388;2022-10-31T09:15:37;7.93;;;3.22;;
34481;SDS011;20720;48.886;9.388;2022-10-31T09:18:04;10.23;;;3.30;;
34481;SDS011;20720;48.886;9.388;2022-10-31T09:20:31;8.70;;;3.55;;
34481;SDS011;20720;48.886;9.388;2022-10-31T09:23:02;6.18;;;3.10;;
34481;SDS011;20720;48.886;9.388;2022-10-31T09:25:29;5.47;;;3.20;;
34481;SDS011;20720;48.886;9.388;2022-10-31T09:27:55;8.27;;;3.78;;
34481;SDS011;20720;48.886;9.388;2022-10-31T09:30:22;7.55;;;3.20;;
34481;SDS011;20720;48.886;9.388;2022-10-31T09:32:47;5.88;;;2.80;;
34481;SDS011;20720;48.886;9.388;2022-10-31T09:35:13;6.07;;;2.83;;
34481;SDS011;20720;48.886;9.388;2022-10-31T09:37:39;8.80;;;3.67;;
34481;SDS011;20720;48.886;9.388;2022-10-31T09:40:05;13.13;;;4.07;;
34481;SDS011;20720;48.886;9.388;2022-10-31T09:42:35;11.45;;;4.70;;
34481;SDS011;20720;48.886;9.388;2022-10-31T09:45:31;8.18;;;4.20;;
34481;SDS011;20720;48.886;9.388;2022-10-31T09:48:19;11.57;;;3.88;;
34481;SDS011;20720;48.886;9.388;2022-10-31T09:51:18;10.30;;;4.05;;
34481;SDS011;20720;48.886;9.388;2022-10-31T09:54:05;6.60;;;4.00;;
34481;SDS011;20720;48.886;9.388;2022-10-31T09:56:35;10.93;;;4.07;;
34481;SDS011;20720;48.886;9.388;2022-10-31T09:59:04;12.75;;;4.30;;
34481;SDS011;20720;48.886;9.388;2022-10-31T10:04:28;9.70;;;4.28;;
34481;SDS011;20720;48.886;9.388;2022-10-31T10:06:57;9.57;;;4.32;;
34481;SDS011;20720;48.886;9.388;2022-10-31T10:09:26;8.25;;;3.30;;
34481;SDS011;20720;48.886;9.388;2022-10-31T10:14:59;9.45;;;4.05;;
34481;SDS011;20720;48.886;9.388;2022-10-31T10:17:53;9.30;;;3.72;;
34481;SDS011;20720;48.886;9.388;2022-10-31T10:23:02;7.03;;;3.53;;
34481;SDS011;20720;48.886;9.388;2022-10-31T10:25:41;5.68;;;3.53;;
34481;SDS011;20720;48.886;9.388;2022-10-31T10:33:33;9.68;;;4.00;;
34481;SDS011;20720;48.886;9.388;2022-10-31T10:38:54;8.20;;;3.95;;
34481;SDS011;20720;48.886;9.388;2022-10-31T10:41:24;8.32;;;5.55;;
34481;SDS011;20720;48.886;9.388;2022-10-31T10:43:55;8.57;;;5.18;;
34481;SDS011;20720;48.886;9.388;2022-10-31T10:49:40;11.27;;;6.50;;
34481;SDS011;20720;48.886;9.388;2022-10-31T11:00:41;12.32;;;5.88;;
34481;SDS011;20720;48.886;9.388;2022-10-31T11:03:04;8.82;;;5.38;;
34481;SDS011;20720;48.886;9.388;2022-10-31T11:08:07;9.93;;;5.45;;
34481;SDS011;20720;48.886;9.388;2022-10-31T11:10:33;9.77;;;5.85;;
34481;SDS011;20720;48.886;9.388;2022-10-31T11:18:29;10.10;;;4.88;;
34481;SDS011;20720;48.886;9.388;2022-10-31T11:20:57;9.25;;;4.68;;
34481;SDS011;20720;48.886;9.388;2022-10-31T11:23:26;10.93;;;4.55;;
34481;SDS011;20720;48.886;9.388;2022-10-31T11:26:00;10.45;;;4.18;;
34481;SDS011;20720;48.886;9.388;2022-10-31T11:28:31;7.43;;;3.47;;
34481;SDS011;20720;48.886;9.388;2022-10-31T11:31:00;8.80;;;3.63;;
34481;SDS011;20720;48.886;9.388;2022-10-31T11:33:33;8.55;;;3.63;;
34481;SDS011;20720;48.886;9.388;2022-10-31T11:36:31;9.50;;;3.55;;
34481;SDS011;20720;48.886;9.388;2022-10-31T11:39:00;6.43;;;2.97;;
34481;SDS011;20720;48.886;9.388;2022-10-31T11:41:28;6.40;;;3.70;;
34481;SDS011;20720;48.886;9.388;2022-10-31T11:43:58;9.52;;;3.67;;
34481;SDS011;20720;48.886;9.388;2022-10-31T11:49:10;9.93;;;3.85;;
34481;SDS011;20720;48.886;9.388;2022-10-31T11:51:39;7.45;;;3.80;;
34481;SDS011;20720;48.886;9.388;2022-10-31T11:54:05;9.88;;;3.60;;
34481;SDS011;20720;48.886;9.388;2022-10-31T11:56:41;8.82;;;3.90;;
34481;SDS011;20720;48.886;9.388;2022-10-31T11:59:26;7.22;;;3.65;;
34481;SDS011;20720;48.886;9.388;2022-10-31T12:01:54;8.75;;;4.10;;
34481;SDS011;20720;48.886;9.388;2022-10-31T12:04:24;8.13;;;4.65;;
34481;SDS011;20720;48.886;9.388;2022-10-31T12:07:06;9.88;;;4.20;;
34481;SDS011;20720;48.886;9.388;2022-10-31T12:09:33;9.30;;;3.97;;
34481;SDS011;20720;48.886;9.388;2022-10-31T12:12:22;8.60;;;3.75;;
34481;SDS011;20720;48.886;9.388;2022-10-31T12:15:05;7.90;;;3.67;;
34481;SDS011;20720;48.886;9.388;2022-10-31T12:20:44;11.73;;;4.07;;
34481;SDS011;20720;48.886;9.388;2022-10-31T12:29:06;11.43;;;3.58;;
34481;SDS011;20720;48.886;9.388;2022-10-31T12:31:57;13.27;;;4.20;;
34481;SDS011;20720;48.886;9.388;2022-10-31T12:34:55;8.57;;;3.63;;
34481;SDS011;20720;48.886;9.388;2022-10-31T12:46:10;9.55;;;3.60;;
34481;SDS011;20720;48.886;9.388;2022-10-31T12:59:57;8.10;;;3.78;;
34481;SDS011;20720;48.886;9.388;2022-10-31T13:02:30;9.77;;;4.05;;
34481;SDS011;20720;48.886;9.388;2022-10-31T13:05:24;11.25;;;4.47;;
34481;SDS011;20720;48.886;9.388;2022-10-31T13:08:12;9.02;;;4.53;;
34481;SDS011;20720;48.886;9.388;2022-10-31T13:13:18;12.02;;;4.15;;
34481;SDS011;20720;48.886;9.388;2022-10-31T13:18:57;8.88;;;4.53;;
34481;SDS011;20720;48.886;9.388;2022-10-31T13:21:36;9.93;;;4.03;;
34481;SDS011;20720;48.886;9.388;2022-10-31T13:24:09;8.68;;;4.55;;
34481;SDS011;20720;48.886;9.388;2022-10-31T13:26:50;8.20;;;4.22;;
34481;SDS011;20720;48.886;9.388;2022-10-31T13:29:24;9.82;;;3.72;;
34481;SDS011;20720;48.886;9.388;2022-10-31T13:31:50;10.00;;;3.70;;
34481;SDS011;20720;48.886;9.388;2022-10-31T13:34:18;8.63;;;3.53;;
34481;SDS011;20720;48.886;9.388;2022-10-31T13:37:06;8.20;;;3.33;;
34481;SDS011;20720;48.886;9.388;2022-10-31T13:39:49;11.55;;;4.03;;
34481;SDS011;20720;48.886;9.388;2022-10-31T13:45:15;10.73;;;3.75;;
34481;SDS011;20720;48.886;9.388;2022-10-31T13:47:55;9.45;;;3.92;;
34481;SDS011;20720;48.886;9.388;2022-10-31T13:50:23;9.40;;;3.95;;
34481;SDS011;20720;48.886;9.388;2022-10-31T13:52:50;8.85;;;4.38;;
34481;SDS011;20720;48.886;9.388;2022-10-31T13:55:35;9.45;;;3.90;;
34481;SDS011;20720;48.886;9.388;2022-10-31T13:58:03;7.80;;;3.90;;
34481;SDS011;20720;48.886;9.388;2022-10-31T14:03:28;12.48;;;4.60;;
34481;SDS011;20720;48.886;9.388;2022-10-31T14:05:55;6.35;;;3.47;;
34481;SDS011;20720;48.886;9.388;2022-10-31T14:08:21;11.27;;;4.00;;
34481;SDS011;20720;48.886;9.388;2022-10-31T14:10:52;10.07;;;4.22;;
34481;SDS011;20720;48.886;9.388;2022-10-31T14:13:30;6.97;;;3.45;;
34481;SDS011;20720;48.886;9.388;2022-10-31T14:16:00;9.05;;;3.53;;
34481;SDS011;20720;48.886;9.388;2022-10-31T14:18:34;8.55;;;4.13;;
34481;SDS011;20720;48.886;9.388;2022-10-31T14:23:48;10.63;;;4.38;;
34481;SDS011;20720;48.886;9.388;2022-10-31T14:28:44;8.20;;;4.15;;
34481;SDS011;20720;48.886;9.388;2022-10-31T14:31:27;8.25;;;4.88;;
34481;SDS011;20720;48.886;9.388;2022-10-31T14:33:57;8.40;;;3.80;;
34481;SDS011;20720;48.886;9.388;2022-10-31T14:36:30;9.88;;;4.72;;
34481;SDS011;20720;48.886;9.388;2022-10-31T14:39:15;9.40;;;4.45;;
34481;SDS011;20720;48.886;9.388;2022-10-31T14:51:10;8.85;;;4.68;;
34481;SDS011;20720;48.886;9.388;2022-10-31T14:53:24;6.80;;;4.00;;
34481;SDS011;20720;48.886;9.388;2022-10-31T14:55:54;10.82;;;4.50;;
34481;SDS011;20720;48.886;9.388;2022-10-31T14:58:34;8.40;;;3.80;;
34481;SDS011;20720;48.886;9.388;2022-10-31T15:01:03;12.20;;;4.20;;
34481;SDS011;20720;48.886;9.388;2022-10-31T15:06:00;8.90;;;3.90;;
34481;SDS011;20720;48.886;9.388;2022-10-31T15:11:02;8.95;;;4.18;;
34481;SDS011;20720;48.886;9.388;2022-10-31T15:13:28;9.02;;;4.53;;
34481;SDS011;20720;48.886;9.388;2022-10-31T15:15:54;7.77;;;3.77;;
34481;SDS011;20720;48.886;9.388;2022-10-31T15:18:24;6.20;;;3.92;;
34481;SDS011;20720;48.886;9.388;2022-10-31T15:20:52;8.85;;;4.32;;
34481;SDS011;20720;48.886;9.388;2022-10-31T15:23:21;9.45;;;4.00;;
34481;SDS011;20720;48.886;9.388;2022-10-31T15:25:50;7.38;;;4.15;;
34481;SDS011;20720;48.886;9.388;2022-10-31T15:30:50;9.48;;;3.97;;
34481;SDS011;20720;48.886;9.388;2022-10-31T15:33:21;9.23;;;4.25;;
34481;SDS011;20720;48.886;9.388;2022-10-31T15:35:59;8.68;;;4.03;;
34481;SDS011;20720;48.886;9.388;2022-10-31T15:38:26;8.85;;;4.03;;
34481;SDS011;20720;48.886;9.388;2022-10-31T15:41:39;10.15;;;4.22;;
34481;SDS011;20720;48.886;9.388;2022-10-31T15:43:48;9.40;;;4.68;;
34481;SDS011;20720;48.886;9.388;2022-10-31T15:46:14;10.48;;;4.70;;
34481;SDS011;20720;48.886;9.388;2022-10-31T15:48:43;10.88;;;5.07;;
34481;SDS011;20720;48.886;9.388;2022-10-31T15:51:10;10.00;;;5.30;;
34481;SDS011;20720;48.886;9.388;2022-10-31T15:53:37;10.05;;;5.47;;
34481;SDS011;20720;48.886;9.388;2022-10-31T15:56:11;13.77;;;6.82;;
34481;SDS011;20720;48.886;9.388;2022-10-31T15:58:41;11.57;;;6.18;;
34481;SDS011;20720;48.886;9.388;2022-10-31T16:01:24;11.70;;;6.18;;
34481;SDS011;20720;48.886;9.388;2022-10-31T16:06:31;11.25;;;6.75;;
34481;SDS011;20720;48.886;9.388;2022-10-31T16:08:58;12.63;;;6.47;;
34481;SDS011;20720;48.886;9.388;2022-10-31T16:13:53;12.68;;;7.57;;
34481;SDS011;20720;48.886;9.388;2022-10-31T16:16:21;13.50;;;7.78;;
34481;SDS011;20720;48.886;9.388;2022-10-31T16:18:48;20.13;;;10.27;;
34481;SDS011;20720;48.886;9.388;2022-10-31T16:21:15;16.40;;;8.50;;
34481;SDS011;20720;48.886;9.388;2022-10-31T16:23:49;17.27;;;8.90;;
34481;SDS011;20720;48.886;9.388;2022-10-31T16:26:20;18.88;;;9.38;;
34481;SDS011;20720;48.886;9.388;2022-10-31T16:28:52;21.55;;;11.02;;
34481;SDS011;20720;48.886;9.388;2022-10-31T16:31:24;16.98;;;9.38;;
34481;SDS011;20720;48.886;9.388;2022-10-31T16:34:00;24.80;;;14.43;;
34481;SDS011;20720;48.886;9.388;2022-10-31T16:38:52;21.15;;;9.85;;
34481;SDS011;20720;48.886;9.388;2022-10-31T16:41:21;17.95;;;10.35;;
34481;SDS011;20720;48.886;9.388;2022-10-31T16:43:47;18.98;;;10.07;;
34481;SDS011;20720;48.886;9.388;2022-10-31T16:46:14;15.90;;;9.50;;
34481;SDS011;20720;48.886;9.388;2022-10-31T16:48:43;16.38;;;8.45;;
34481;SDS011;20720;48.886;9.388;2022-10-31T16:51:08;16.42;;;9.18;;
34481;SDS011;20720;48.886;9.388;2022-10-31T16:53:33;17.20;;;9.73;;
34481;SDS011;20720;48.886;9.388;2022-10-31T16:55:59;19.90;;;10.48;;
34481;SDS011;20720;48.886;9.388;2022-10-31T16:58:28;22.70;;;11.13;;
34481;SDS011;20720;48.886;9.388;2022-10-31T17:00:56;18.02;;;10.00;;
34481;SDS011;20720;48.886;9.388;2022-10-31T17:03:22;19.70;;;10.35;;
34481;SDS011;20720;48.886;9.388;2022-10-31T17:05:47;20.40;;;11.40;;
34481;SDS011;20720;48.886;9.388;2022-10-31T17:08:13;19.70;;;10.40;;
34481;SDS011;20720;48.886;9.388;2022-10-31T17:10:39;23.67;;;13.05;;
34481;SDS011;20720;48.886;9.388;2022-10-31T17:13:05;20.88;;;14.07;;
34481;SDS011;20720;48.886;9.388;2022-10-31T17:15:37;21.63;;;13.40;;